createdAt,value
2018-11-14T00:02:59.276Z,2.13
2018-11-14T00:08:02.472Z,2.73
2018-11-14T00:13:05.711Z,3.50
2018-11-14T00:18:08.944Z,2.57
2018-11-14T00:23:12.137Z,3.13
2018-11-14T00:28:15.520Z,2.17
2018-11-14T00:33:18.780Z,2.83
2018-11-14T00:38:21.987Z,2.50
2018-11-14T00:43:25.707Z,2.37
2018-11-14T00:48:28.949Z,2.53
2018-11-14T00:53:32.180Z,2.47
2018-11-14T00:58:35.442Z,2.47
2018-11-14T01:03:38.671Z,2.63
2018-11-14T01:08:41.881Z,1.87
2018-11-14T01:13:45.092Z,2.70
2018-11-14T01:18:48.283Z,2.67
2018-11-14T01:23:51.468Z,2.67
2018-11-14T01:28:54.709Z,2.93
2018-11-14T01:33:57.879Z,2.70
2018-11-14T01:39:01.093Z,2.60
2018-11-14T01:44:04.304Z,2.37
2018-11-14T01:49:08.527Z,2.40
2018-11-14T01:54:11.749Z,2.83
2018-11-14T01:59:14.960Z,2.30
2018-11-14T02:04:18.201Z,3.10
2018-11-14T02:09:21.417Z,2.73
2018-11-14T02:14:24.664Z,2.63
2018-11-14T02:19:27.932Z,2.80
2018-11-14T02:24:31.587Z,2.83
2018-11-14T02:29:34.808Z,2.30
2018-11-14T02:34:38.005Z,2.60
2018-11-14T02:39:41.227Z,2.50
2018-11-14T02:44:44.464Z,2.77
2018-11-14T02:49:47.701Z,2.63
2018-11-14T02:54:50.977Z,2.20
2018-11-14T02:59:54.555Z,2.53
2018-11-14T03:04:57.788Z,1.80
2018-11-14T03:10:01.036Z,3.13
2018-11-14T03:15:05.712Z,1.80
2018-11-14T03:20:11.144Z,2.67
2018-11-14T03:25:14.812Z,2.73
2018-11-14T03:30:18.526Z,2.27
2018-11-14T03:35:21.792Z,2.10
2018-11-14T03:40:25.008Z,2.77
2018-11-14T03:45:28.235Z,2.57
2018-11-14T03:50:31.492Z,3.30
2018-11-14T03:55:34.840Z,3.97
2018-11-14T04:00:38.063Z,2.37
2018-11-14T04:05:41.308Z,2.50
2018-11-14T04:10:44.516Z,3.50
2018-11-14T04:15:47.716Z,2.90
2018-11-14T04:20:50.928Z,3.03
2018-11-14T04:25:54.141Z,3.00
2018-11-14T04:30:57.371Z,2.50
2018-11-14T04:36:00.657Z,3.80
2018-11-14T04:41:03.864Z,2.83
2018-11-14T04:46:07.111Z,2.60
2018-11-14T04:51:10.325Z,3.40
2018-11-14T04:56:13.543Z,2.87
2018-11-14T05:01:16.764Z,2.70
2018-11-14T05:06:19.985Z,2.70
2018-11-14T05:11:23.221Z,3.20
2018-11-14T05:16:26.436Z,3.03
2018-11-14T05:21:29.803Z,2.43
2018-11-14T05:26:33.042Z,2.40
2018-11-14T05:31:36.278Z,2.60
2018-11-14T05:36:39.529Z,3.90
2018-11-14T05:41:42.784Z,2.93
2018-11-14T05:46:46.020Z,2.23
2018-11-14T05:51:49.272Z,3.43
2018-11-14T05:56:52.484Z,2.47
2018-11-14T06:01:55.704Z,2.50
2018-11-14T06:06:58.925Z,3.13
2018-11-14T06:12:02.175Z,2.97
2018-11-14T06:17:05.393Z,2.77
2018-11-14T06:22:08.656Z,2.43
2018-11-14T06:27:11.836Z,2.70
2018-11-14T06:32:15.086Z,2.60
2018-11-14T06:37:18.312Z,3.10
2018-11-14T06:42:21.533Z,2.90
2018-11-14T06:47:24.772Z,2.00
2018-11-14T06:52:27.988Z,2.90
2018-11-14T06:57:31.196Z,2.97
2018-11-14T07:02:38.336Z,2.70
2018-11-14T07:12:47.237Z,3.13
2018-11-14T07:17:51.360Z,2.80
2018-11-14T07:22:54.532Z,3.80
2018-11-14T07:27:57.766Z,3.30
2018-11-14T07:33:03.132Z,2.83
2018-11-14T07:38:39.487Z,3.00
2018-11-14T07:43:43.215Z,3.10
2018-11-14T07:48:47.421Z,3.20
2018-11-14T07:53:50.872Z,3.00
2018-11-14T07:58:54.123Z,4.10
2018-11-14T08:03:57.304Z,2.00
2018-11-14T08:09:00.516Z,2.67
2018-11-14T08:14:03.712Z,2.57
2018-11-14T08:19:06.908Z,3.20
2018-11-14T08:24:10.184Z,3.10
2018-11-14T08:29:13.380Z,2.87
2018-11-14T08:34:16.569Z,2.53
2018-11-14T08:39:19.818Z,2.70
2018-11-14T08:44:23.017Z,2.80
2018-11-14T08:49:26.233Z,2.43
2018-11-14T08:54:29.420Z,2.37
2018-11-14T08:59:32.616Z,2.30
2018-11-14T09:04:35.809Z,2.63
2018-11-14T09:09:39.020Z,2.23
2018-11-14T09:14:42.300Z,3.07
2018-11-14T09:19:45.444Z,2.03
2018-11-14T09:24:48.710Z,2.10
2018-11-14T09:29:51.843Z,2.60
2018-11-14T09:34:55.024Z,1.60
2018-11-14T09:39:58.216Z,1.83
2018-11-14T09:45:01.416Z,2.70
2018-11-14T09:50:05.584Z,2.70
2018-11-14T09:55:09.543Z,2.10
2018-11-14T10:00:17.086Z,2.10
2018-11-14T10:05:21.589Z,2.43
2018-11-14T10:10:24.828Z,2.30
2018-11-14T10:15:28.125Z,2.27
2018-11-14T10:20:31.256Z,2.43
2018-11-14T10:25:34.481Z,2.00
2018-11-14T10:30:37.680Z,2.20
2018-11-14T10:35:40.904Z,2.17
2018-11-14T10:40:44.103Z,2.27
2018-11-14T10:45:47.292Z,2.50
2018-11-14T10:50:50.516Z,1.10
2018-11-14T10:55:53.712Z,2.77
2018-11-14T11:01:02.297Z,2.30
2018-11-14T11:06:10.888Z,1.43
2018-11-14T11:11:17.676Z,2.30
2018-11-14T11:16:26.216Z,1.73
2018-11-14T11:21:29.408Z,1.93
2018-11-14T11:26:32.625Z,1.60
2018-11-14T11:31:35.828Z,2.90
2018-11-14T11:36:39.335Z,1.87
2018-11-14T11:41:43.184Z,1.97
2018-11-14T11:46:46.381Z,1.80
2018-11-14T11:51:49.604Z,1.70
2018-11-14T11:56:52.813Z,2.10
2018-11-14T12:01:56.032Z,1.70
2018-11-14T12:06:59.231Z,1.47
2018-11-14T12:12:02.717Z,2.00
2018-11-14T12:17:06.034Z,1.73
2018-11-14T12:22:09.247Z,1.60
2018-11-14T12:27:12.487Z,2.03
2018-11-14T12:32:15.825Z,2.30
2018-11-14T12:37:19.044Z,2.07
2018-11-14T12:42:22.240Z,2.07
2018-11-14T12:47:25.437Z,1.50
2018-11-14T12:52:28.701Z,2.00
2018-11-14T12:57:32.323Z,2.03
2018-11-14T13:02:35.540Z,2.00
2018-11-14T13:07:38.868Z,1.83
2018-11-14T13:12:42.496Z,1.83
2018-11-14T13:17:45.736Z,1.43
2018-11-14T13:22:49.301Z,1.30
2018-11-14T13:27:52.526Z,1.70
2018-11-14T13:32:55.735Z,1.50
2018-11-14T13:37:58.948Z,1.50
2018-11-14T13:43:02.187Z,1.17
2018-11-14T13:48:05.696Z,1.33
2018-11-14T13:53:08.896Z,1.10
2018-11-14T13:58:12.124Z,1.67
2018-11-14T14:03:15.336Z,1.77
2018-11-14T14:08:18.556Z,1.77
2018-11-14T14:13:21.789Z,1.77
2018-11-14T14:18:25.037Z,1.83
2018-11-14T14:23:28.258Z,1.57
2018-11-14T14:28:31.469Z,1.20
2018-11-14T14:33:34.673Z,1.20
2018-11-14T14:38:37.919Z,1.70
2018-11-14T14:43:41.113Z,1.30
2018-11-14T14:48:44.362Z,1.40
2018-11-14T14:53:47.549Z,1.67
2018-11-14T14:58:50.829Z,1.40
2018-11-14T15:03:54.043Z,1.40
2018-11-14T15:08:57.237Z,1.83
2018-11-14T15:14:00.464Z,1.50
2018-11-14T15:19:03.807Z,1.17
2018-11-14T15:24:07.020Z,1.93
2018-11-14T15:29:10.228Z,1.53
2018-11-14T15:34:13.563Z,2.20
2018-11-14T15:39:16.776Z,1.80
2018-11-14T15:44:20.001Z,1.60
2018-11-14T15:49:23.205Z,1.70
2018-11-14T15:54:26.447Z,1.53
2018-11-14T15:59:29.662Z,2.23
2018-11-14T16:04:32.904Z,2.17
2018-11-14T16:09:36.171Z,3.30
2018-11-14T16:14:39.396Z,2.80
2018-11-14T16:19:42.627Z,3.37
2018-11-14T16:24:45.918Z,2.30
2018-11-14T16:29:49.080Z,3.00
2018-11-14T16:34:52.292Z,2.53
2018-11-14T16:39:55.516Z,2.77
2018-11-14T16:44:58.716Z,2.40
2018-11-14T16:50:01.934Z,2.60
2018-11-14T16:55:06.013Z,2.27
2018-11-14T17:00:12.131Z,2.10
2018-11-14T17:05:16.749Z,2.20
2018-11-14T17:10:20.984Z,2.00
2018-11-14T17:15:25.235Z,2.13
2018-11-14T17:20:28.524Z,2.00
2018-11-14T17:25:31.852Z,2.53
2018-11-14T17:30:35.132Z,2.20
2018-11-14T17:35:38.335Z,2.13
2018-11-14T17:40:41.717Z,2.70
2018-11-14T17:45:44.896Z,2.90
2018-11-14T17:50:50.544Z,2.70
2018-11-14T17:55:53.928Z,2.53
2018-11-14T18:00:57.163Z,2.83
2018-11-14T18:06:00.341Z,2.50
2018-11-14T18:11:03.838Z,2.70
2018-11-14T18:16:07.064Z,2.83
2018-11-14T18:21:10.299Z,2.57
2018-11-14T18:26:13.509Z,2.53
2018-11-14T18:31:16.696Z,3.00
2018-11-14T18:36:19.973Z,2.07
2018-11-14T18:41:23.352Z,2.67
2018-11-14T18:46:26.533Z,2.63
2018-11-14T18:51:30.920Z,3.07
2018-11-14T18:56:34.159Z,3.00
2018-11-14T19:01:37.363Z,3.43
2018-11-14T19:06:40.603Z,2.60
2018-11-14T19:11:45.041Z,2.70
2018-11-14T19:16:48.254Z,2.77
2018-11-14T19:21:51.458Z,3.10
2018-11-14T19:26:54.673Z,3.03
2018-11-14T19:31:57.904Z,3.13
2018-11-14T19:37:01.033Z,3.20
2018-11-14T19:42:04.408Z,2.77
2018-11-14T19:47:07.589Z,2.60
2018-11-14T19:52:10.776Z,4.27
2018-11-14T19:57:14.022Z,2.93
2018-11-14T20:02:17.339Z,3.63
2018-11-14T20:07:20.428Z,3.63
2018-11-14T20:12:23.641Z,2.63
2018-11-14T20:17:26.877Z,3.47
2018-11-14T20:22:30.117Z,3.10
2018-11-14T20:27:33.460Z,3.97
2018-11-14T20:32:36.705Z,2.90
2018-11-14T20:37:40.096Z,3.17
2018-11-14T20:42:43.604Z,2.83
2018-11-14T20:47:46.755Z,3.03
2018-11-14T20:52:51.576Z,2.73
2018-11-14T20:57:54.792Z,2.87
2018-11-14T21:02:58.095Z,3.40
2018-11-14T21:08:01.254Z,3.00
2018-11-14T21:13:05.152Z,3.93
2018-11-14T21:18:08.688Z,2.83
2018-11-14T21:23:18.677Z,3.60
2018-11-14T21:28:21.864Z,4.10
2018-11-14T21:33:25.060Z,3.30
2018-11-14T21:38:28.285Z,3.10
2018-11-14T21:43:31.550Z,2.73
2018-11-14T21:48:34.693Z,3.20
2018-11-14T21:53:37.892Z,3.20
2018-11-14T21:58:41.100Z,2.80
2018-11-14T22:03:44.340Z,2.93
2018-11-14T22:08:47.576Z,3.93
2018-11-14T22:13:50.804Z,3.60
2018-11-14T22:18:54.001Z,3.60
2018-11-14T22:23:57.214Z,3.50
2018-11-14T22:29:01.005Z,3.50
2018-11-14T22:34:04.216Z,3.80
2018-11-14T22:39:08.709Z,3.17
2018-11-14T22:44:11.905Z,3.40
2018-11-14T22:49:15.124Z,3.30
2018-11-14T22:54:18.345Z,3.47
2018-11-14T22:59:21.548Z,3.53
2018-11-14T23:04:24.761Z,3.37
2018-11-14T23:09:27.952Z,3.90
2018-11-14T23:14:31.172Z,3.37
2018-11-14T23:19:34.376Z,3.13
2018-11-14T23:24:37.566Z,3.60
2018-11-14T23:29:40.771Z,3.53
2018-11-14T23:34:49.468Z,4.03
2018-11-14T23:39:52.695Z,3.33
2018-11-14T23:44:56.007Z,3.90
2018-11-14T23:49:59.189Z,4.10
2018-11-14T23:55:02.392Z,3.20
